Time;durP1;ratioP1;P1;durP2;ratioP2;P2;SDS_P1;SDS_P2;PMS_P1;PMS_P2;Temp;Humidity;BMP_temperature;BMP_pressure;BME280_temperature;BME280_humidity;BME280_pressure;Samples;Min_cycle;Max_cycle;Signal;HPM_P1;HPM_P2
2021/04/11 00:01:59;;;;;;;4.90;1.33;;;;;;;6.00;46.21;101704.28;6071490;29;20212;-72
2021/04/11 00:05:05;;;;;;;8.87;1.00;;;;;;;5.86;46.66;101715.75;6072090;29;20297;-71
2021/04/11 00:08:13;;;;;;;2.00;1.20;;;;;;;5.77;46.46;101697.78;6070394;29;20490;-72
2021/04/11 00:11:16;;;;;;;2.10;1.20;;;;;;;5.77;46.79;101714.03;6071563;29;20194;-71
2021/04/11 00:14:19;;;;;;;1.20;1.17;;;;;;;5.49;47.90;101709.84;6070607;29;20194;-71
2021/04/11 00:17:22;;;;;;;2.77;1.50;;;;;;;5.46;48.97;101705.63;6071584;29;20193;-71
2021/04/11 00:20:27;;;;;;;1.30;1.20;;;;;;;5.44;49.38;101717.63;6070211;29;20442;-71
2021/04/11 00:23:30;;;;;;;2.83;1.40;;;;;;;5.39;49.99;101717.25;6071028;29;20221;-72
2021/04/11 00:26:33;;;;;;;2.40;1.13;;;;;;;5.46;49.79;101707.47;6071152;29;20196;-71
2021/04/11 00:29:36;;;;;;;1.67;1.57;;;;;;;5.25;50.95;101717.84;6070505;29;20332;-71
2021/04/11 00:32:40;;;;;;;2.87;1.40;;;;;;;5.14;51.00;101710.00;6070221;29;20197;-71
2021/04/11 00:35:45;;;;;;;1.43;1.23;;;;;;;5.24;51.03;101727.00;6071117;29;20194;-71
2021/04/11 00:38:48;;;;;;;5.50;1.60;;;;;;;5.08;51.82;101728.56;6069997;29;20468;-72
2021/04/11 00:41:57;;;;;;;3.47;2.70;;;;;;;5.02;53.10;101726.53;6069992;29;20190;-71
2021/04/11 00:45:12;;;;;;;8.97;4.47;;;;;;;5.18;53.01;101724.91;6070897;29;20218;-72
2021/04/11 00:48:18;;;;;;;5.23;3.70;;;;;;;5.19;52.40;101734.75;6070060;29;20193;-71
2021/04/11 00:51:26;;;;;;;7.00;4.23;;;;;;;5.19;54.08;101740.16;6054368;29;20216;-71
2021/04/11 00:54:30;;;;;;;4.97;2.80;;;;;;;5.16;52.87;101737.78;6053885;29;20220;-71
2021/04/11 00:57:34;;;;;;;3.10;2.67;;;;;;;5.17;53.72;101751.13;6053926;29;20385;-70
2021/04/11 01:00:38;;;;;;;2.40;2.20;;;;;;;5.08;53.41;101755.63;6069011;29;20210;-71
2021/04/11 01:03:41;;;;;;;5.33;3.27;;;;;;;5.02;54.16;101758.97;6045254;29;20273;-71
2021/04/11 01:06:50;;;;;;;8.20;4.40;;;;;;;5.08;53.89;101750.22;6046857;29;20209;-72
2021/04/11 01:09:54;;;;;;;8.73;5.07;;;;;;;5.12;54.99;101761.56;6050132;29;20245;-71
2021/04/11 01:12:58;;;;;;;4.70;2.43;;;;;;;5.06;55.14;101759.50;6052223;29;20194;-72
2021/04/11 01:16:03;;;;;;;3.47;2.70;;;;;;;5.08;55.15;101761.03;6051171;29;20210;-71
2021/04/11 01:19:08;;;;;;;4.77;1.50;;;;;;;5.07;54.05;101766.63;6052090;29;20194;-72
2021/04/11 01:22:25;;;;;;;1.50;1.40;;;;;;;5.03;54.58;101768.78;6050411;29;20210;-72
2021/04/11 01:25:32;;;;;;;2.97;1.40;;;;;;;4.91;54.71;101758.38;6049828;29;20529;-71
2021/04/11 01:28:40;;;;;;;5.13;1.50;;;;;;;4.96;55.39;101789.34;6051625;29;20195;-72
2021/04/11 01:31:45;;;;;;;4.30;1.30;;;;;;;4.93;55.27;101794.25;6050938;29;20225;-71
2021/04/11 01:34:53;;;;;;;2.20;1.30;;;;;;;4.87;55.56;101790.31;6049443;29;20392;-72
2021/04/11 01:37:58;;;;;;;4.47;1.53;;;;;;;4.97;55.38;101807.28;6049400;29;20213;-71
2021/04/11 01:41:08;;;;;;;6.60;1.30;;;;;;;4.96;55.71;101805.59;6050208;29;20171;-72
2021/04/11 01:44:15;;;;;;;;;;;;;;;4.88;55.97;101804.66;6049734;29;20118;-72
2021/04/11 01:47:19;;;;;;;;;;;;;;;4.93;56.26;101811.28;6050590;29;19964;-71
2021/04/11 01:50:22;;;;;;;;;;;;;;;4.79;56.99;101808.31;6050247;29;19926;-72
2021/04/11 01:53:26;;;;;;;;;;;;;;;4.75;58.51;101813.16;6050709;29;19955;-72
2021/04/11 01:56:33;;;;;;;;;;;;;;;4.69;57.65;101805.72;6050517;29;19920;-72
2021/04/11 01:59:42;;;;;;;;;;;;;;;4.69;57.98;101808.41;6050375;29;19984;-72
2021/04/11 02:02:46;;;;;;;3.27;1.40;;;;;;;4.61;58.93;101811.03;6053112;29;20251;-72
2021/04/11 02:05:50;;;;;;;1.73;1.10;;;;;;;4.63;59.06;101814.41;6056597;29;20231;-72
2021/04/11 02:09:00;;;;;;;1.83;1.13;;;;;;;4.59;59.20;101818.44;6056444;29;20525;-72
2021/04/11 02:12:12;;;;;;;3.40;1.50;;;;;;;4.47;59.80;101819.66;6056771;29;20216;-72
2021/04/11 02:15:19;;;;;;;1.23;1.10;;;;;;;4.34;59.92;101786.75;6057487;29;20218;-72
2021/04/11 02:18:25;;;;;;;1.70;1.10;;;;;;;4.34;60.04;101808.38;6056593;29;20210;-71
2021/04/11 02:21:30;;;;;;;4.83;1.33;;;;;;;4.32;60.02;101810.38;6056796;29;20208;-72
2021/04/11 02:24:38;;;;;;;3.67;1.40;;;;;;;4.24;60.96;101821.97;6056299;29;20482;-72
2021/04/11 02:27:42;;;;;;;2.00;1.30;;;;;;;4.31;60.36;101809.53;6073599;29;20254;-70
2021/04/11 02:30:50;;;;;;;1.70;1.40;;;;;;;4.38;60.51;101815.19;6056783;29;20409;-71
2021/04/11 02:33:57;;;;;;;1.57;1.43;;;;;;;4.25;60.83;101806.59;6055737;29;20439;-72
2021/04/11 02:37:04;;;;;;;2.50;1.20;;;;;;;4.35;60.17;101820.91;6055963;29;20207;-72
2021/04/11 02:40:22;;;;;;;4.50;1.20;;;;;;;4.24;59.57;101829.22;6056047;29;20507;-71
2021/04/11 02:43:28;;;;;;;1.30;1.20;;;;;;;4.23;59.59;101838.34;6055613;29;20207;-73
2021/04/11 02:46:33;;;;;;;1.30;1.10;;;;;;;4.03;60.06;101842.16;6055552;29;20215;-72
2021/04/11 02:49:38;;;;;;;2.00;1.50;;;;;;;4.04;61.19;101849.25;6072791;29;20255;-72
2021/04/11 02:52:46;;;;;;;3.13;1.47;;;;;;;4.12;60.79;101858.31;6071895;29;20433;-71
2021/04/11 02:55:50;;;;;;;1.47;0.90;;;;;;;4.15;60.77;101851.75;6055969;29;20386;-72
2021/04/11 02:58:57;;;;;;;1.70;1.13;;;;;;;4.09;60.71;101830.72;6056473;29;20209;-71
2021/04/11 03:02:02;;;;;;;9.50;3.77;;;;;;;4.07;60.25;101854.34;6072651;29;20230;-71
2021/04/11 03:05:10;;;;;;;5.57;4.67;;;;;;;4.18;61.26;101851.44;6055322;29;20245;-71
2021/04/11 03:08:22;;;;;;;3.87;2.87;;;;;;;4.11;61.62;101861.16;6056046;29;20209;-71
2021/04/11 03:11:29;;;;;;;;;;;;;;;4.18;61.00;101867.66;6056266;29;20097;-72
2021/04/11 03:14:35;;;;;;;;;;;;;;;4.10;60.56;101872.94;6071906;29;19924;-72
2021/04/11 03:17:39;;;;;;;;;;;;;;;4.04;60.60;101870.84;6072172;29;19919;-72
2021/04/11 03:20:44;;;;;;;1.00;1.00;;;;;;;3.80;60.84;101864.13;6054918;29;19982;-70
2021/04/11 03:23:54;;;;;;;1.57;1.23;;;;;;;3.94;61.24;101888.94;6055232;29;20535;-70
2021/04/11 03:27:10;;;;;;;1.53;1.20;;;;;;;3.94;62.19;101880.84;6055786;29;20250;-72
2021/04/11 03:30:20;;;;;;;7.50;1.03;;;;;;;3.97;61.80;101875.16;6054496;29;20274;-71
2021/04/11 03:33:24;;;;;;;5.77;1.20;;;;;;;3.73;61.23;101884.63;6055412;29;20251;-71
2021/04/11 03:36:29;;;;;;;1.63;1.20;;;;;;;3.87;61.55;101898.63;6071004;29;20229;-71
2021/04/11 03:39:34;;;;;;;1.83;1.30;;;;;;;3.78;61.37;101908.47;6070897;29;20499;-71
2021/04/11 03:42:45;;;;;;;1.60;1.30;;;;;;;3.59;62.71;101914.78;6054425;29;20211;-71
2021/04/11 03:45:50;;;;;;;2.20;1.27;;;;;;;3.61;63.04;101912.78;6054620;29;20227;-72
2021/04/11 03:49:00;;;;;;;3.77;1.30;;;;;;;3.77;63.98;101923.81;6054099;29;20207;-72
2021/04/11 03:52:09;;;;;;;2.83;1.30;;;;;;;3.74;63.38;101918.72;6055212;29;20207;-71
2021/04/11 03:55:18;;;;;;;9.93;1.50;;;;;;;3.62;63.30;101935.25;6071878;29;20197;-72
2021/04/11 03:58:25;;;;;;;3.40;1.23;;;;;;;3.55;64.51;101926.84;6055153;29;20207;-71
2021/04/11 04:01:36;;;;;;;1.37;1.00;;;;;;;3.34;63.86;101895.69;6053636;29;20213;-71
2021/04/11 04:04:41;;;;;;;2.60;1.20;;;;;;;3.45;64.03;101939.50;6070806;29;20246;-70
2021/04/11 04:07:48;;;;;;;4.03;1.40;;;;;;;3.11;65.71;101935.56;6071696;29;20192;-71
2021/04/11 04:11:11;;;;;;;3.83;1.30;;;;;;;2.58;65.35;101858.81;6071421;29;20274;-72
2021/04/11 04:14:24;;;;;;;1.23;1.17;;;;;;;2.94;65.73;101939.81;6054469;29;20296;-72
2021/04/11 04:17:37;;;;;;;2.33;1.57;;;;;;;3.21;65.02;101957.16;6053962;29;20213;-72
2021/04/11 04:20:45;;;;;;;2.97;1.80;;;;;;;3.12;64.90;101943.53;6053842;29;20244;-72
2021/04/11 04:24:03;;;;;;;4.63;1.30;;;;;;;3.09;64.84;101964.50;6053477;29;20401;-72
2021/04/11 04:27:23;;;;;;;2.93;1.10;;;;;;;2.90;65.74;101964.53;6055053;29;20193;-72
2021/04/11 04:30:42;;;;;;;1.73;1.20;;;;;;;2.69;65.75;101966.47;6053773;29;20215;-72
2021/04/11 04:33:59;;;;;;;2.10;1.23;;;;;;;2.66;67.00;101969.44;6053963;29;20210;-72
2021/04/11 04:37:17;;;;;;;1.40;1.30;;;;;;;2.60;67.34;101978.06;6054250;29;20216;-72
2021/04/11 04:40:41;;;;;;;2.47;1.20;;;;;;;2.76;66.62;101984.63;6053499;29;20212;-71
2021/04/11 04:43:52;;;;;;;1.40;1.30;;;;;;;2.73;67.90;101979.50;6057035;29;20240;-71
2021/04/11 04:47:06;;;;;;;4.87;1.40;;;;;;;2.78;67.47;101981.78;6058880;29;20272;-71
2021/04/11 04:50:25;;;;;;;1.23;1.13;;;;;;;2.88;67.13;101996.13;6058659;29;20209;-71
2021/04/11 04:53:42;;;;;;;4.00;1.30;;;;;;;3.00;67.35;101997.72;6075762;29;20194;-71
2021/04/11 04:56:57;;;;;;;2.93;1.40;;;;;;;2.94;67.15;101995.59;6057472;29;20565;-72
2021/04/11 05:00:06;;;;;;;3.80;1.40;;;;;;;3.13;66.09;102001.00;6058137;29;20209;-72
2021/04/11 05:03:25;;;;;;;3.80;1.50;;;;;;;3.32;65.84;102009.09;6058010;29;20245;-72
2021/04/11 05:06:45;;;;;;;4.57;1.60;;;;;;;3.07;67.11;102026.69;6057587;29;20231;-72
2021/04/11 05:10:18;;;;;;;3.20;1.37;;;;;;;3.14;66.14;102026.97;6067063;29;20449;-71
2021/04/11 05:13:34;;;;;;;1.50;1.23;;;;;;;3.20;66.08;102023.72;6057671;29;20210;-70
2021/04/11 05:16:43;;;;;;;2.83;1.33;;;;;;;3.20;67.32;102031.81;6057631;29;20565;-71
2021/04/11 05:19:53;;;;;;;1.90;1.10;;;;;;;3.40;66.91;102041.63;6058542;29;20217;-71
2021/04/11 05:23:14;;;;;;;3.13;1.20;;;;;;;3.55;66.02;102032.09;6059121;29;20201;-71
2021/04/11 05:26:23;;;;;;;2.60;1.50;;;;;;;3.64;65.50;102044.75;6058011;29;20234;-71
2021/04/11 05:29:35;;;;;;;5.43;1.50;;;;;;;3.60;66.25;102050.56;6057548;29;20273;-71
2021/04/11 05:32:39;;;;;;;6.40;1.57;;;;;;;3.64;66.04;102042.06;6074916;29;20198;-72
2021/04/11 05:35:44;;;;;;;1.90;1.47;;;;;;;3.60;66.37;102045.16;6074583;29;20205;-72
2021/04/11 05:39:01;;;;;;;7.93;1.67;;;;;;;3.58;66.98;102047.16;6073627;29;20200;-72
2021/04/11 05:42:16;;;;;;;2.73;1.27;;;;;;;3.69;66.92;102045.19;6057535;29;20388;-71
2021/04/11 05:45:23;;;;;;;5.20;1.60;;;;;;;3.86;65.96;102050.81;6074593;29;20226;-71
2021/04/11 05:48:37;;;;;;;4.40;1.20;;;;;;;3.92;66.48;102047.56;6073419;29;20359;-72
2021/04/11 05:51:44;;;;;;;3.70;1.20;;;;;;;3.91;65.64;102024.22;6074851;29;20262;-72
2021/04/11 05:54:51;;;;;;;2.00;1.43;;;;;;;4.22;65.17;102047.34;6072403;29;20202;-72
2021/04/11 05:57:59;;;;;;;5.67;1.53;;;;;;;4.15;65.54;102048.91;6073194;29;20221;-71
2021/04/11 06:01:05;;;;;;;6.17;1.40;;;;;;;4.10;66.22;102053.91;6074005;29;20191;-72
2021/04/11 06:04:13;;;;;;;4.23;1.50;;;;;;;4.31;66.84;102071.63;6074146;29;20241;-72
2021/04/11 06:07:20;;;;;;;4.23;1.40;;;;;;;4.35;66.13;102072.19;6073245;29;20531;-72
2021/04/11 06:10:31;;;;;;;5.97;1.70;;;;;;;4.47;65.60;102073.69;6074160;29;20199;-72
2021/04/11 06:13:41;;;;;;;3.00;1.50;;;;;;;4.57;64.79;102074.50;6074147;29;20200;-72
2021/04/11 06:16:44;;;;;;;5.50;1.53;;;;;;;4.08;65.40;101981.16;6072771;29;20203;-71
2021/04/11 06:19:48;;;;;;;7.00;1.57;;;;;;;4.47;64.77;102046.66;6073610;29;20197;-71
2021/04/11 06:22:58;;;;;;;6.07;1.50;;;;;;;4.63;65.33;102073.94;6073528;29;20192;-71
2021/04/11 06:26:08;;;;;;;6.13;1.47;;;;;;;4.69;64.74;102078.75;6074002;29;20291;-73
2021/04/11 06:29:18;;;;;;;2.63;1.53;;;;;;;4.76;64.58;102079.84;6073531;29;20192;-72
2021/04/11 06:32:24;;;;;;;2.20;1.20;;;;;;;4.78;64.13;102067.03;6072424;29;20406;-72
2021/04/11 06:35:39;;;;;;;2.43;1.30;;;;;;;4.81;64.93;102071.28;6055675;29;20220;-72
2021/04/11 06:38:47;;;;;;;4.30;1.50;;;;;;;4.52;65.21;102021.94;6073093;29;20203;-72
2021/04/11 06:42:03;;;;;;;;;;;;;;;5.07;64.26;102083.97;6072542;29;20532;-71
2021/04/11 06:45:13;;;;;;;4.95;1.70;;;;;;;5.51;62.63;102065.16;6072058;29;20578;-72
2021/04/11 06:48:54;;;;;;;5.33;1.70;;;;;;;6.00;61.51;102078.16;6073308;29;20226;-71
2021/04/11 06:52:23;;;;;;;6.67;1.63;;;;;;;6.13;61.32;102086.72;6019734;29;20265;-73
2021/04/11 06:55:58;;;;;;;2.90;1.60;;;;;;;6.38;61.72;102097.72;6072737;29;20241;-71
2021/04/11 06:59:14;;;;;;;3.43;1.47;;;;;;;6.16;60.87;102089.09;6072692;29;20204;-71
2021/04/11 07:02:53;;;;;;;8.20;1.57;;;;;;;6.37;61.80;102096.84;6071769;29;20301;-71
2021/04/11 07:06:48;;;;;;;10.17;1.33;;;;;;;6.55;61.50;102100.38;6049702;29;20274;-72
2021/04/11 07:10:06;;;;;;;4.73;1.50;;;;;;;6.52;60.15;102099.84;6072467;29;20201;-70
2021/04/11 07:13:51;;;;;;;6.33;1.63;;;;;;;6.58;60.27;102105.47;6071758;29;20194;-72
2021/04/11 07:17:08;;;;;;;;;;;;;;;6.43;60.81;102111.66;6071733;29;20082;-72
2021/04/11 07:20:35;;;;;;;4.30;1.47;;;;;;;6.73;59.06;102117.44;6071220;29;20474;-72
2021/04/11 07:24:20;;;;;;;4.17;1.70;;;;;;;6.95;57.96;102107.88;6071107;29;20541;-72
2021/04/11 07:27:37;;;;;;;6.20;1.50;;;;;;;6.82;57.95;102081.22;6072133;29;20262;-71
2021/04/11 07:30:48;;;;;;;3.60;1.30;;;;;;;6.89;57.11;102113.94;6072019;29;20112;-72
2021/04/11 07:34:28;;;;;;;4.07;1.63;;;;;;;6.85;56.56;102118.00;6071533;29;20191;-71
2021/04/11 07:37:45;;;;;;;1.70;1.23;;;;;;;7.01;56.56;102118.06;6071816;29;20251;-71
2021/04/11 07:41:04;;;;;;;2.67;1.20;;;;;;;7.13;55.70;102124.94;6071605;29;20198;-70
2021/04/11 07:44:44;;;;;;;1.87;1.30;;;;;;;7.22;55.43;102125.78;6071491;29;20197;-71
2021/04/11 07:48:26;;;;;;;6.63;1.48;;;;;;;7.27;55.08;102124.28;6059425;29;20278;-71
2021/04/11 07:51:48;;;;;;;3.00;1.40;;;;;;;7.33;55.48;102129.06;6070639;29;20525;-71
2021/04/11 07:55:15;;;;;;;2.40;1.40;;;;;;;7.40;54.53;102130.09;6070553;29;20221;-71
2021/04/11 07:59:11;;;;;;;4.90;1.27;;;;;;;7.52;53.12;102126.06;6070433;29;20191;-71
2021/04/11 08:02:39;;;;;;;1.35;1.20;;;;;;;7.56;52.58;102119.28;6041401;29;20206;-72
2021/04/11 08:06:20;;;;;;;5.30;1.37;;;;;;;7.63;53.55;102121.34;6023957;29;20226;-71
2021/04/11 08:09:31;;;;;;;;;;;;;;;7.70;52.44;102119.66;6022444;29;20382;-71
2021/04/11 08:12:54;;;;;;;;;;;;;;;7.80;51.88;102114.91;6024713;29;19921;-71
2021/04/11 08:16:04;;;;;;;;;;;;;;;7.84;51.04;102111.69;6025188;29;19920;-71
2021/04/11 08:19:43;;;;;;;7.22;1.30;;;;;;;7.96;50.71;102123.09;6024812;29;19955;-71
2021/04/11 08:22:57;;;;;;;;;;;;;;;7.88;49.73;102112.22;6024013;29;20393;-71
2021/04/11 08:26:11;;;;;;;;;;;;;;;8.00;49.60;102124.44;6025330;29;19964;-72
2021/04/11 08:29:28;;;;;;;;;;;;;;;8.11;49.55;102129.56;6024321;29;20215;-71
2021/04/11 08:32:52;;;;;;;;;;;;;;;7.95;49.23;102118.66;6025242;29;19921;-71
2021/04/11 08:36:33;;;;;;;;;;;;;;;8.02;48.51;102134.13;6024338;29;20211;-71
2021/04/11 08:39:45;;;;;;;;;;;;;;;8.12;46.58;102136.66;6025496;29;19921;-71
2021/04/11 08:43:07;;;;;;;9.52;1.45;;;;;;;8.18;47.87;102142.28;6025214;29;19963;-71
2021/04/11 08:46:26;;;;;;;3.28;0.98;;;;;;;8.22;47.10;102131.09;6024948;29;20227;-72
2021/04/11 08:49:36;;;;;;;;;;;;;;;8.34;46.14;102146.91;6025410;29;20091;-72
2021/04/11 08:52:43;;;;;;;;;;;;;;;8.36;46.18;102150.31;6024070;29;20315;-72
2021/04/11 08:56:00;;;;;;;2.03;1.20;;;;;;;8.40;46.47;102157.09;6023508;29;19997;-72
2021/04/11 08:59:12;;;;;;;4.50;1.40;;;;;;;8.55;45.95;102149.94;6023716;29;20563;-71
2021/04/11 09:02:32;;;;;;;5.82;1.30;;;;;;;8.42;46.94;102127.88;6024552;29;20175;-71
2021/04/11 09:05:53;;;;;;;7.53;1.60;;;;;;;8.54;45.34;102148.25;6024583;29;20223;-71
2021/04/11 09:09:10;;;;;;;3.60;1.40;;;;;;;8.54;45.80;102161.00;6024482;29;20224;-71
2021/04/11 09:12:21;;;;;;;3.10;1.60;;;;;;;8.58;45.25;102160.47;6024840;29;20192;-70
2021/04/11 09:15:31;;;;;;;2.05;1.25;;;;;;;8.69;45.02;102151.97;6023358;29;20380;-71
2021/04/11 09:18:54;;;;;;;9.15;2.10;;;;;;;8.74;44.85;102160.44;6024694;29;20192;-71
2021/04/11 09:22:07;;;;;;;;;;;;;;;8.64;45.64;102159.78;6023613;29;20122;-70
2021/04/11 09:25:12;;;;;;;;;;;;;;;8.86;45.09;102162.81;6024203;29;19963;-71
2021/04/11 09:28:36;;;;;;;2.90;1.27;;;;;;;8.98;44.52;102166.88;6025739;29;19920;-71
2021/04/11 09:31:52;;;;;;;3.60;1.23;;;;;;;9.05;44.24;102162.41;6027562;29;20398;-71
2021/04/11 09:35:02;;;;;;;;;;;;;;;9.03;44.14;102162.59;6027899;29;20274;-71
2021/04/11 09:38:16;;;;;;;;;;;;;;;9.17;43.65;102158.28;6028932;29;19921;-72
2021/04/11 09:41:29;;;;;;;;;;;;;;;9.10;43.24;102149.13;6028849;29;19979;-71
2021/04/11 09:44:42;;;;;;;;;;;;;;;8.99;41.68;102163.13;6027563;29;20546;-71
2021/04/11 09:48:05;;;;;;;;;;;;;;;9.13;42.30;102154.22;6027528;29;20226;-72
2021/04/11 09:51:19;;;;;;;;;;;;;;;9.30;42.69;102155.84;6028883;29;19925;-72
2021/04/11 09:54:28;;;;;;;;;;;;;;;9.32;42.88;102148.38;6028512;29;19931;-72
2021/04/11 09:58:12;;;;;;;4.10;1.45;;;;;;;9.21;41.52;102140.56;6028284;29;20147;-71
2021/04/11 10:01:25;;;;;;;6.68;1.20;;;;;;;9.27;41.68;102151.59;6027576;29;20234;-72
2021/04/11 10:04:47;;;;;;;2.92;1.27;;;;;;;9.50;41.09;102148.94;6056176;29;20234;-72
2021/04/11 10:08:30;;;;;;;2.80;1.10;;;;;;;9.41;39.85;102152.72;6073625;29;20228;-72
2021/04/11 10:11:50;;;;;;;1.33;1.10;;;;;;;9.44;40.17;102141.50;6073543;29;20231;-72
2021/04/11 10:15:02;;;;;;;2.83;1.10;;;;;;;9.33;40.76;102156.34;6073478;29;20190;-72
2021/04/11 10:18:26;;;;;;;3.17;1.30;;;;;;;9.46;40.82;102144.88;6072112;29;20454;-72
2021/04/11 10:21:37;;;;;;;2.38;1.40;;;;;;;9.58;40.77;102145.34;6073423;29;20190;-71
2021/04/11 10:24:45;;;;;;;5.20;1.27;;;;;;;9.57;41.04;102147.22;6073535;29;20274;-72
2021/04/11 10:27:54;;;;;;;;;;;;;;;9.43;41.02;102151.53;6073229;29;20218;-72
2021/04/11 10:31:10;;;;;;;3.03;1.30;;;;;;;9.56;41.15;102150.09;6073305;29;19960;-71
2021/04/11 10:34:22;;;;;;;1.42;1.15;;;;;;;9.68;41.23;102137.78;6072411;29;20197;-72
2021/04/11 10:37:31;;;;;;;2.35;1.40;;;;;;;9.62;41.77;102150.25;6072942;29;20230;-72
2021/04/11 10:40:42;;;;;;;;;;;;;;;9.56;41.00;102153.69;6072506;29;20049;-71
2021/04/11 10:43:52;;;;;;;;;;;;;;;9.64;41.54;102147.31;6072454;29;19927;-70
2021/04/11 10:47:03;;;;;;;;;;;;;;;9.87;41.34;102149.06;6073528;29;19919;-71
2021/04/11 10:50:13;;;;;;;5.38;1.30;;;;;;;9.59;41.20;102153.31;6071332;29;20538;-72
2021/04/11 10:53:32;;;;;;;2.85;1.00;;;;;;;9.68;41.11;102144.06;6071635;29;20190;-71
2021/04/11 10:56:46;;;;;;;4.50;1.50;;;;;;;9.63;40.48;102145.66;6072851;29;20201;-72
2021/04/11 11:00:11;;;;;;;2.97;0.95;;;;;;;9.70;40.88;102136.56;6072506;29;20302;-72
2021/04/11 11:03:41;;;;;;;4.50;1.58;;;;;;;9.66;40.50;102137.94;6071693;29;20302;-71
2021/04/11 11:07:18;;;;;;;2.65;1.05;;;;;;;9.75;40.16;102147.78;6071228;29;20481;-72
2021/04/11 11:10:33;;;;;;;1.25;1.10;;;;;;;9.50;38.41;102140.75;6071137;29;20195;-72
2021/04/11 11:13:57;;;;;;;2.95;1.10;;;;;;;9.66;38.83;102148.84;6072169;29;20197;-72
2021/04/11 11:17:14;;;;;;;3.58;1.27;;;;;;;9.66;38.35;102140.66;6071165;29;20544;-71
2021/04/11 11:20:24;;;;;;;2.47;1.00;;;;;;;9.89;38.31;102141.53;6071133;29;20191;-71
2021/04/11 11:23:42;;;;;;;1.20;1.20;;;;;;;9.99;38.81;102136.69;6072600;29;20190;-72
2021/04/11 11:27:06;;;;;;;1.85;1.75;;;;;;;10.04;38.31;102128.81;6070939;29;20206;-71
2021/04/11 11:30:25;;;;;;;1.38;1.23;;;;;;;9.88;37.92;102128.09;6070863;29;20454;-72
2021/04/11 11:33:44;;;;;;;3.33;1.00;;;;;;;9.73;36.01;102130.75;6071738;29;20191;-72
2021/04/11 11:36:54;;;;;;;2.22;0.90;;;;;;;9.91;37.20;102122.28;6071779;29;20198;-73
2021/04/11 11:40:06;;;;;;;8.05;1.38;;;;;;;9.98;36.13;102129.56;6072003;29;20257;-72
2021/04/11 11:43:23;;;;;;;2.55;1.33;;;;;;;9.91;36.64;102134.03;6070541;29;20222;-72
2021/04/11 11:46:37;;;;;;;1.23;1.00;;;;;;;9.95;38.13;102129.91;6071765;29;20218;-72
2021/04/11 11:49:49;;;;;;;2.13;0.80;;;;;;;10.09;37.65;102120.94;6071428;29;20195;-71
2021/04/11 11:52:57;;;;;;;1.77;1.30;;;;;;;10.13;38.45;102120.59;6071491;29;20197;-71
2021/04/11 11:56:11;;;;;;;1.10;1.10;;;;;;;10.16;37.61;102125.69;6070298;29;20212;-72
2021/04/11 11:59:24;;;;;;;2.05;1.00;;;;;;;10.21;37.85;102117.81;6071318;29;20191;-71
2021/04/11 12:02:40;;;;;;;4.15;1.38;;;;;;;9.90;38.62;102102.34;6071297;29;20206;-71
2021/04/11 12:05:50;;;;;;;7.78;1.17;;;;;;;9.88;38.39;102128.97;6024111;29;20255;-71
2021/04/11 12:09:01;;;;;;;7.00;1.38;;;;;;;10.06;40.70;102125.94;6025129;29;20261;-73
2021/04/11 12:12:12;;;;;;;1.17;1.10;;;;;;;10.22;40.59;102125.81;6025386;29;20199;-72
2021/04/11 12:15:25;;;;;;;2.63;1.50;;;;;;;10.13;42.10;102131.50;6024429;29;20198;-72
2021/04/11 12:18:31;;;;;;;7.63;1.75;;;;;;;9.98;41.93;102118.66;6024571;29;20196;-71
2021/04/11 12:21:43;;;;;;;6.20;1.52;;;;;;;9.88;41.97;102126.22;6024801;29;20240;-71
2021/04/11 12:24:56;;;;;;;7.45;1.45;;;;;;;9.60;42.80;102140.56;6023788;29;20422;-72
2021/04/11 12:28:09;;;;;;;6.53;1.83;;;;;;;9.87;42.81;102127.25;6025005;29;20284;-72
2021/04/11 12:31:30;;;;;;;3.42;1.00;;;;;;;9.69;38.69;102139.47;6023721;29;20191;-72
2021/04/11 12:34:45;;;;;;;1.75;1.10;;;;;;;9.79;39.09;102140.94;6023764;29;20444;-72
2021/04/11 12:37:59;;;;;;;2.90;1.08;;;;;;;9.95;39.95;102140.81;6024829;29;20196;-72
2021/04/11 12:41:08;;;;;;;5.30;1.38;;;;;;;10.14;40.55;102144.13;6024479;29;20199;-72
2021/04/11 12:44:20;;;;;;;7.47;2.47;;;;;;;9.98;41.74;102140.47;6023843;29;20383;-72
2021/04/11 12:47:35;;;;;;;5.90;1.33;;;;;;;9.69;42.62;102123.97;6024991;29;20251;-72
2021/04/11 12:50:45;;;;;;;5.18;1.35;;;;;;;9.72;42.55;102145.41;6023439;29;20246;-72
2021/04/11 12:54:10;;;;;;;3.70;1.50;;;;;;;9.63;42.60;102135.56;5976829;29;20576;-72
2021/04/11 12:57:23;;;;;;;2.83;1.58;;;;;;;9.48;44.05;102142.81;5994777;29;20533;-72
2021/04/11 13:00:32;;;;;;;3.00;1.30;;;;;;;9.62;43.92;102133.91;6024364;29;20198;-71
2021/04/11 13:03:40;;;;;;;5.60;1.33;;;;;;;9.39;44.30;102138.44;6040090;29;20234;-71
2021/04/11 13:06:52;;;;;;;3.42;2.10;;;;;;;9.43;45.70;102135.19;6074511;29;20215;-71
2021/04/11 13:10:16;;;;;;;8.27;1.50;;;;;;;9.46;46.81;102123.09;6074966;29;20198;-71
2021/04/11 13:13:24;;;;;;;6.73;1.73;;;;;;;9.45;46.10;102121.38;6075019;29;20801;-71
2021/04/11 13:16:35;;;;;;;2.67;1.50;;;;;;;9.81;45.79;102099.88;6072290;29;21079;-71
2021/04/11 13:19:45;;;;;;;5.10;1.52;;;;;;;9.26;47.21;102105.50;6074215;29;20198;-71
2021/04/11 13:22:55;;;;;;;3.53;1.50;;;;;;;9.23;48.18;102105.84;6074695;29;20190;-71
2021/04/11 13:26:06;;;;;;;3.65;2.03;;;;;;;9.18;48.02;102102.81;6073429;29;20504;-72
2021/04/11 13:29:19;;;;;;;5.75;1.60;;;;;;;9.43;47.23;102104.38;6074540;29;20336;-72
2021/04/11 13:32:33;;;;;;;4.78;1.67;;;;;;;9.17;48.42;102091.06;6074219;29;20254;-72
2021/04/11 13:35:40;;;;;;;4.55;1.80;;;;;;;9.03;47.94;102099.13;6073164;29;20445;-72
2021/04/11 13:38:44;;;;;;;7.10;1.63;;;;;;;8.97;48.74;102100.69;6072749;29;20426;-71
2021/04/11 13:42:17;;;;;;;3.63;1.92;;;;;;;9.07;48.65;102089.56;6073452;29;20196;-71
2021/04/11 13:45:28;;;;;;;4.55;2.00;;;;;;;8.85;49.09;102101.22;6073964;29;20191;-71
2021/04/11 13:48:54;;;;;;;19.15;2.38;;;;;;;8.78;49.51;102095.66;6047701;29;20238;-71
2021/04/11 13:52:04;;;;;;;4.28;2.13;;;;;;;8.69;49.73;102096.69;6072815;29;20270;-71
2021/04/11 13:55:15;;;;;;;3.90;1.88;;;;;;;8.65;49.95;102096.19;6074024;29;20197;-71
2021/04/11 13:58:24;;;;;;;5.35;1.80;;;;;;;8.60;51.12;102087.69;6073144;29;20194;-71
2021/04/11 14:01:43;;;;;;;2.45;1.50;;;;;;;8.60;50.27;102093.13;6073937;29;20230;-71
2021/04/11 14:04:56;;;;;;;2.58;1.20;;;;;;;8.42;49.01;102089.78;6073615;29;20289;-72
2021/04/11 14:08:01;;;;;;;;;;;;;;;8.48;49.52;102088.22;6073179;29;20302;-71
2021/04/11 14:11:12;;;;;;;11.80;1.50;;;;;;;8.37;49.74;102081.28;6072543;29;20231;-72
2021/04/11 14:14:23;;;;;;;7.43;1.38;;;;;;;8.19;51.06;102077.91;6072511;29;20195;-71
2021/04/11 14:17:31;;;;;;;3.25;1.65;;;;;;;7.99;51.72;102076.53;6073592;29;20201;-71
2021/04/11 14:20:39;;;;;;;1.80;1.05;;;;;;;8.18;52.03;102076.19;6073457;29;20231;-72
2021/04/11 14:23:55;;;;;;;1.52;1.20;;;;;;;7.80;53.41;102061.44;6073235;29;20233;-71
2021/04/11 14:27:09;;;;;;;2.28;1.20;;;;;;;7.91;53.87;102082.00;6073428;29;20222;-72
2021/04/11 14:30:23;;;;;;;2.28;1.13;;;;;;;8.01;55.16;102088.91;6073724;29;20175;-72
2021/04/11 14:33:31;;;;;;;1.38;1.30;;;;;;;7.86;56.21;102097.91;6073956;29;20254;-72
2021/04/11 14:36:43;;;;;;;2.45;1.73;;;;;;;7.86;57.37;102087.91;6072496;29;20206;-73
2021/04/11 14:39:54;;;;;;;3.35;1.42;;;;;;;7.50;59.57;102087.34;6072813;29;20190;-73
2021/04/11 14:43:02;;;;;;;7.18;1.42;;;;;;;7.52;60.31;102098.06;6073582;29;20191;-72
2021/04/11 14:46:16;;;;;;;2.58;1.25;;;;;;;7.56;60.91;102089.41;6073360;29;20197;-72
2021/04/11 14:49:22;;;;;;;3.65;1.30;;;;;;;7.57;61.87;102098.41;6071860;29;20218;-71
2021/04/11 14:52:37;;;;;;;6.20;1.60;;;;;;;7.44;62.63;102109.75;6072740;29;20191;-72
2021/04/11 14:55:49;;;;;;;4.75;1.80;;;;;;;7.43;63.33;102097.19;6072899;29;20198;-72
2021/04/11 14:59:02;;;;;;;4.78;1.58;;;;;;;7.62;62.91;102089.75;6071953;29;20201;-72
2021/04/11 15:02:26;;;;;;;3.70;1.60;;;;;;;7.43;63.15;102080.91;6072974;29;20206;-71
2021/04/11 15:05:35;;;;;;;6.25;1.40;;;;;;;7.36;64.57;102112.44;6071766;29;20242;-72
2021/04/11 15:08:46;;;;;;;2.88;1.30;;;;;;;7.36;64.83;102123.31;6072351;29;20241;-71
2021/04/11 15:12:00;;;;;;;10.07;1.80;;;;;;;7.22;65.97;102114.94;6071530;29;20537;-71
2021/04/11 15:15:11;;;;;;;3.85;1.55;;;;;;;7.58;63.25;102122.69;6072660;29;20231;-72
2021/04/11 15:18:25;;;;;;;4.57;1.45;;;;;;;7.40;63.25;102097.53;6072381;29;20194;-72
2021/04/11 15:21:37;;;;;;;2.87;1.20;;;;;;;6.98;55.81;102098.56;6072380;29;20270;-72